createdAt,value
2018-10-12T00:02:37.733Z,15.03
2018-10-12T00:06:46.294Z,15.60
2018-10-12T00:10:55.115Z,16.63
2018-10-12T00:15:03.433Z,16.53
2018-10-12T00:19:11.701Z,17.15
2018-10-12T00:23:19.974Z,15.23
2018-10-12T00:27:28.667Z,16.80
2018-10-12T00:31:36.955Z,16.00
2018-10-12T00:35:45.439Z,16.10
2018-10-12T00:39:54.009Z,16.60
2018-10-12T00:44:02.398Z,15.70
2018-10-12T00:48:10.658Z,15.37
2018-10-12T00:52:18.976Z,15.40
2018-10-12T00:56:27.970Z,16.50
2018-10-12T01:00:36.259Z,15.80
2018-10-12T01:04:44.802Z,15.20
2018-10-12T01:08:53.381Z,16.33
2018-10-12T01:13:01.945Z,17.12
2018-10-12T01:17:10.211Z,15.87
2018-10-12T01:21:18.636Z,15.30
2018-10-12T01:25:27.417Z,13.90
2018-10-12T01:29:35.681Z,14.53
2018-10-12T01:33:44.077Z,15.00
2018-10-12T01:37:52.405Z,14.87
2018-10-12T01:42:01.074Z,14.27
2018-10-12T01:46:09.377Z,14.17
2018-10-12T01:50:17.767Z,13.37
2018-10-12T01:54:26.936Z,14.23
2018-10-12T01:58:35.765Z,15.00
2018-10-12T02:02:44.181Z,13.87
2018-10-12T02:06:52.602Z,13.40
2018-10-12T02:11:01.202Z,14.33
2018-10-12T02:15:09.561Z,13.23
2018-10-12T02:19:17.958Z,14.90
2018-10-12T02:23:26.503Z,14.03
2018-10-12T02:27:34.852Z,14.37
2018-10-12T02:31:43.671Z,13.93
2018-10-12T02:35:52.011Z,13.85
2018-10-12T02:40:00.349Z,15.67
2018-10-12T02:44:08.677Z,13.20
2018-10-12T02:48:17.404Z,13.63
2018-10-12T02:52:26.414Z,14.10
2018-10-12T02:56:34.685Z,13.90
2018-10-12T03:00:42.938Z,13.50
2018-10-12T03:04:51.249Z,13.43
2018-10-12T03:09:00.622Z,12.93
2018-10-12T03:13:08.898Z,13.67
2018-10-12T03:17:17.289Z,12.70
2018-10-12T03:21:26.039Z,12.63
2018-10-12T03:25:34.342Z,13.97
2018-10-12T03:29:42.803Z,14.73
2018-10-12T03:33:51.117Z,14.00
2018-10-12T03:37:59.941Z,12.77
2018-10-12T03:42:08.299Z,13.70
2018-10-12T03:46:16.716Z,12.80
2018-10-12T03:50:25.533Z,14.37
2018-10-12T03:54:33.890Z,13.13
2018-10-12T03:58:42.221Z,11.90
2018-10-12T04:02:50.577Z,11.20
2018-10-12T04:06:59.232Z,11.63
2018-10-12T04:11:07.603Z,12.80
2018-10-12T04:15:16.061Z,11.83
2018-10-12T04:19:24.738Z,11.63
2018-10-12T04:23:33.088Z,11.27
2018-10-12T04:27:41.377Z,11.60
2018-10-12T04:31:49.714Z,12.07
2018-10-12T04:35:58.246Z,11.20
2018-10-12T04:40:16.000Z,11.13
2018-10-12T04:44:24.892Z,12.47
2018-10-12T04:48:34.148Z,10.27
2018-10-12T04:52:42.486Z,10.00
2018-10-12T04:56:51.363Z,10.87
2018-10-12T05:01:00.149Z,10.97
2018-10-12T05:05:08.489Z,9.87
2018-10-12T05:09:17.041Z,10.60
2018-10-12T05:13:25.926Z,10.13
2018-10-12T05:17:34.267Z,10.13
2018-10-12T05:21:42.634Z,11.70
2018-10-12T05:25:50.954Z,10.27
2018-10-12T05:29:59.544Z,9.50
2018-10-12T05:34:07.790Z,9.55
2018-10-12T05:38:16.369Z,10.43
2018-10-12T05:42:24.942Z,9.13
2018-10-12T05:46:33.217Z,8.90
2018-10-12T05:50:41.516Z,11.30
2018-10-12T05:54:49.806Z,9.00
2018-10-12T05:58:58.883Z,9.90
2018-10-12T06:03:07.249Z,9.43
2018-10-12T06:07:15.737Z,9.20
2018-10-12T06:11:24.467Z,10.13
2018-10-12T06:15:32.836Z,9.70
2018-10-12T06:19:41.015Z,10.63
2018-10-12T06:23:49.297Z,9.40
2018-10-12T06:27:58.098Z,9.53
2018-10-12T06:32:06.453Z,9.60
2018-10-12T06:36:15.002Z,9.37
2018-10-12T06:40:24.217Z,9.60
2018-10-12T06:44:32.756Z,9.30
2018-10-12T06:48:41.073Z,10.00
2018-10-12T06:52:49.351Z,9.30
2018-10-12T06:56:57.988Z,8.60
2018-10-12T07:01:06.351Z,10.67
2018-10-12T07:05:14.870Z,10.13
2018-10-12T07:09:23.436Z,9.47
2018-10-12T07:13:31.816Z,10.80
2018-10-12T07:17:40.149Z,10.93
2018-10-12T07:21:48.482Z,10.37
2018-10-12T07:25:57.332Z,10.10
2018-10-12T07:30:05.903Z,12.00
2018-10-12T07:34:14.437Z,11.20
2018-10-12T07:38:23.314Z,10.50
2018-10-12T07:42:31.934Z,10.13
2018-10-12T07:46:40.143Z,10.80
2018-10-12T07:50:48.460Z,11.13
2018-10-12T07:54:57.067Z,11.23
2018-10-12T07:59:05.452Z,11.27
2018-10-12T08:03:13.902Z,10.17
2018-10-12T08:07:22.442Z,10.03
2018-10-12T08:11:30.816Z,9.90
2018-10-12T08:15:39.122Z,9.27
2018-10-12T08:19:47.737Z,10.60
2018-10-12T08:23:56.427Z,9.47
2018-10-12T08:28:04.728Z,9.33
2018-10-12T08:32:13.088Z,8.90
2018-10-12T08:36:21.470Z,6.70
2018-10-12T08:40:29.872Z,7.10
2018-10-12T08:44:38.125Z,6.70
2018-10-12T08:48:46.656Z,6.87
2018-10-12T08:52:55.613Z,6.43
2018-10-12T08:57:03.906Z,5.93
2018-10-12T09:01:12.181Z,6.60
2018-10-12T09:05:20.468Z,6.50
2018-10-12T09:09:29.016Z,5.87
2018-10-12T09:13:37.301Z,6.10
2018-10-12T09:17:45.655Z,6.03
2018-10-12T09:21:54.019Z,5.87
2018-10-12T09:26:02.384Z,5.27
2018-10-12T09:30:10.666Z,5.90
2018-10-12T09:34:20.028Z,6.00
2018-10-12T09:38:28.529Z,6.43
2018-10-12T09:42:36.817Z,6.40
2018-10-12T09:46:45.251Z,6.03
2018-10-12T09:50:53.606Z,6.10
2018-10-12T09:55:02.209Z,5.70
2018-10-12T09:59:10.504Z,5.53
2018-10-12T10:04:26.115Z,6.13
2018-10-12T10:08:34.768Z,4.63
2018-10-12T10:12:42.924Z,5.00
2018-10-12T10:16:51.280Z,5.80
2018-10-12T10:21:00.077Z,5.03
2018-10-12T10:25:08.457Z,5.23
2018-10-12T10:29:17.048Z,5.73
2018-10-12T10:33:25.776Z,3.60
2018-10-12T10:37:34.573Z,4.07
2018-10-12T10:41:42.924Z,4.57
2018-10-12T10:45:51.263Z,4.40
2018-10-12T10:49:59.915Z,3.73
2018-10-12T10:54:08.246Z,4.70
2018-10-12T10:58:16.742Z,4.67
2018-10-12T11:02:25.187Z,4.90
2018-10-12T11:06:33.733Z,4.33
2018-10-12T11:10:42.021Z,4.40
2018-10-12T11:14:50.398Z,4.10
2018-10-12T11:18:59.006Z,5.13
2018-10-12T11:23:07.333Z,4.87
2018-10-12T11:27:15.682Z,3.87
2018-10-12T11:31:23.994Z,4.83
2018-10-12T11:35:32.647Z,3.90
2018-10-12T11:39:40.886Z,5.10
2018-10-12T11:43:49.385Z,4.37
2018-10-12T11:47:58.483Z,3.80
2018-10-12T11:52:06.977Z,4.20
2018-10-12T11:56:15.232Z,4.53
2018-10-12T12:00:23.651Z,4.30
2018-10-12T12:04:32.097Z,4.40
2018-10-12T12:08:40.464Z,4.43
2018-10-12T12:12:49.004Z,4.00
2018-10-12T12:16:57.912Z,4.43
2018-10-12T12:21:06.273Z,5.07
2018-10-12T12:25:14.555Z,3.80
2018-10-12T12:29:22.853Z,3.63
2018-10-12T12:33:31.964Z,4.83
2018-10-12T12:37:40.448Z,3.50
2018-10-12T12:41:49.000Z,3.83
2018-10-12T12:45:57.881Z,3.70
2018-10-12T12:50:06.772Z,3.80
2018-10-12T12:54:15.045Z,3.93
2018-10-12T12:58:23.383Z,3.47
2018-10-12T13:02:32.018Z,4.40
2018-10-12T13:06:40.335Z,4.57
2018-10-12T13:10:49.395Z,4.10
2018-10-12T13:14:58.074Z,4.40
2018-10-12T13:19:06.752Z,3.83
2018-10-12T13:23:15.113Z,5.20
2018-10-12T13:27:23.437Z,3.80
2018-10-12T13:31:31.986Z,3.80
2018-10-12T13:35:40.366Z,3.70
2018-10-12T13:39:48.956Z,4.57
2018-10-12T13:43:57.772Z,3.90
2018-10-12T13:48:06.137Z,4.30
2018-10-12T13:52:14.431Z,3.70
2018-10-12T13:56:22.750Z,4.10
2018-10-12T14:00:31.456Z,3.20
2018-10-12T14:04:39.687Z,3.50
2018-10-12T14:08:48.147Z,3.20
2018-10-12T14:12:57.180Z,3.40
2018-10-12T14:17:05.514Z,3.90
2018-10-12T14:21:13.842Z,4.00
2018-10-12T14:25:22.193Z,5.70
2018-10-12T14:29:30.706Z,3.23
2018-10-12T14:33:39.036Z,3.43
2018-10-12T14:37:47.737Z,3.60
2018-10-12T14:41:56.490Z,3.90
2018-10-12T14:46:04.886Z,3.73
2018-10-12T14:50:13.163Z,3.73
2018-10-12T14:54:21.433Z,4.03
2018-10-12T14:58:30.289Z,5.00
2018-10-12T15:02:38.329Z,3.90
2018-10-12T15:06:46.825Z,3.80
2018-10-12T15:10:55.762Z,3.80
2018-10-12T15:15:14.689Z,3.73
2018-10-12T15:19:23.211Z,4.40
2018-10-12T15:23:31.540Z,3.83
2018-10-12T15:27:40.665Z,4.33
2018-10-12T15:31:49.011Z,4.00
2018-10-12T15:35:57.578Z,3.70
2018-10-12T15:40:05.906Z,3.50
2018-10-12T15:44:14.574Z,4.23
2018-10-12T15:48:23.084Z,4.10
2018-10-12T15:52:31.474Z,3.87
2018-10-12T15:56:39.783Z,3.90
2018-10-12T16:00:48.157Z,4.00
2018-10-12T16:04:56.891Z,4.00
2018-10-12T16:09:06.634Z,3.87
2018-10-12T16:13:15.146Z,4.60
2018-10-12T16:17:24.002Z,3.40
2018-10-12T16:21:32.329Z,3.70
2018-10-12T16:25:55.724Z,4.73
2018-10-12T16:30:04.035Z,4.80
2018-10-12T16:34:12.298Z,3.90
2018-10-12T16:38:20.626Z,4.00
2018-10-12T16:42:29.080Z,3.67
2018-10-12T16:46:37.361Z,3.70
2018-10-12T16:50:45.836Z,4.37
2018-10-12T16:54:54.405Z,5.30
2018-10-12T16:59:02.728Z,4.23
2018-10-12T17:03:11.009Z,3.70
2018-10-12T17:07:19.394Z,4.03
2018-10-12T17:11:28.242Z,4.00
2018-10-12T17:15:36.537Z,3.87
2018-10-12T17:19:45.042Z,3.73
2018-10-12T17:23:53.680Z,4.13
2018-10-12T17:28:01.992Z,4.03
2018-10-12T17:32:10.281Z,3.93
2018-10-12T17:36:18.595Z,3.60
2018-10-12T17:40:27.095Z,4.80
2018-10-12T17:44:35.484Z,3.60
2018-10-12T17:48:43.959Z,3.70
2018-10-12T17:52:52.427Z,3.83
2018-10-12T17:57:01.326Z,4.20
2018-10-12T18:01:09.668Z,3.77
2018-10-12T18:05:18.049Z,4.80
2018-10-12T18:09:26.592Z,5.83
2018-10-12T18:13:34.895Z,4.50
2018-10-12T18:17:43.298Z,4.60
2018-10-12T18:21:51.873Z,3.90
2018-10-12T18:26:00.527Z,4.57
2018-10-12T18:30:08.808Z,3.93
2018-10-12T18:34:17.220Z,4.20
2018-10-12T18:38:26.011Z,4.60
2018-10-12T18:42:34.328Z,4.40
2018-10-12T18:46:42.766Z,4.63
2018-10-12T18:50:51.054Z,4.60
2018-10-12T18:54:59.645Z,3.80
2018-10-12T18:59:08.009Z,5.10
2018-10-12T19:03:16.290Z,4.43
2018-10-12T19:07:25.054Z,5.40
2018-10-12T19:11:33.350Z,3.98
2018-10-12T19:15:41.639Z,4.80
2018-10-12T19:19:50.011Z,3.80
2018-10-12T19:23:58.514Z,4.40
2018-10-12T19:28:06.834Z,5.87
2018-10-12T19:32:15.580Z,4.40
2018-10-12T19:36:25.035Z,4.03
2018-10-12T19:40:33.414Z,4.87
2018-10-12T19:44:41.683Z,4.20
2018-10-12T19:48:50.089Z,4.83
2018-10-12T19:52:58.820Z,4.87
2018-10-12T19:57:07.077Z,4.70
2018-10-12T20:01:15.358Z,5.20
2018-10-12T20:05:24.561Z,4.80
2018-10-12T20:09:32.812Z,5.10
2018-10-12T20:13:41.093Z,5.10
2018-10-12T20:17:49.442Z,4.67
2018-10-12T20:21:58.071Z,5.10
2018-10-12T20:26:06.465Z,5.10
2018-10-12T20:30:14.984Z,4.60
2018-10-12T20:34:24.029Z,5.33
2018-10-12T20:38:32.369Z,5.30
2018-10-12T20:42:40.638Z,5.00
2018-10-12T20:46:48.905Z,4.47
2018-10-12T20:50:57.530Z,5.03
2018-10-12T20:55:05.893Z,5.23
2018-10-12T20:59:14.478Z,4.63
2018-10-12T21:03:23.088Z,5.13
2018-10-12T21:07:31.549Z,5.07
2018-10-12T21:11:39.862Z,5.63
2018-10-12T21:15:48.424Z,5.13
2018-10-12T21:19:56.709Z,5.53
2018-10-12T21:24:05.275Z,5.17
2018-10-12T21:28:13.979Z,6.40
2018-10-12T21:32:22.333Z,5.80
2018-10-12T21:36:30.682Z,5.83
2018-10-12T21:40:38.957Z,5.87
2018-10-12T21:44:47.822Z,6.17
2018-10-12T21:48:56.161Z,6.27
2018-10-12T21:53:04.750Z,7.20
2018-10-12T21:57:13.790Z,7.80
2018-10-12T22:01:22.144Z,5.90
2018-10-12T22:05:30.480Z,7.20
2018-10-12T22:09:38.824Z,7.20
2018-10-12T22:13:47.279Z,7.40
2018-10-12T22:17:55.525Z,7.30
2018-10-12T22:22:04.221Z,7.33
2018-10-12T22:26:13.526Z,7.10
2018-10-12T22:30:21.763Z,7.30
2018-10-12T22:34:30.063Z,7.17
2018-10-12T22:38:38.370Z,8.00
2018-10-12T22:42:46.967Z,8.17
2018-10-12T22:46:55.210Z,7.00
2018-10-12T22:51:04.161Z,7.03
2018-10-12T22:55:13.701Z,6.80
2018-10-12T22:59:22.050Z,7.07
2018-10-12T23:03:30.325Z,7.00
2018-10-12T23:07:38.675Z,6.87
2018-10-12T23:11:47.310Z,6.53
2018-10-12T23:15:55.654Z,6.00
2018-10-12T23:20:04.498Z,6.77
2018-10-12T23:24:14.145Z,6.40
2018-10-12T23:28:22.474Z,6.70
2018-10-12T23:32:30.938Z,6.13
2018-10-12T23:36:39.216Z,6.87
2018-10-12T23:40:47.886Z,6.40
2018-10-12T23:44:56.132Z,6.40
2018-10-12T23:49:04.809Z,7.03
2018-10-12T23:53:13.700Z,6.77
2018-10-12T23:57:22.052Z,6.20
